sensor_id;sensor_type;location;lat;lon;timestamp;P1;durP1;ratioP1;P2;durP2;ratioP2
19846;SDS011;10084;50.518;8.588;2024-02-26T00:01:36;0.20;;;0.20;;
19846;SDS011;10084;50.518;8.588;2024-02-26T00:04:01;0.20;;;0.20;;
19846;SDS011;10084;50.518;8.588;2024-02-26T00:06:28;1.53;;;0.20;;
19846;SDS011;10084;50.518;8.588;2024-02-26T00:08:54;0.40;;;0.33;;
19846;SDS011;10084;50.518;8.588;2024-02-26T00:11:20;1.10;;;0.30;;
19846;SDS011;10084;50.518;8.588;2024-02-26T00:13:46;0.73;;;0.33;;
19846;SDS011;10084;50.518;8.588;2024-02-26T00:16:11;0.80;;;0.57;;
19846;SDS011;10084;50.518;8.588;2024-02-26T00:18:37;0.20;;;0.20;;
19846;SDS011;10084;50.518;8.588;2024-02-26T00:21:03;0.10;;;0.10;;
19846;SDS011;10084;50.518;8.588;2024-02-26T00:23:29;0.97;;;0.20;;
19846;SDS011;10084;50.518;8.588;2024-02-26T00:25:54;0.37;;;0.37;;
19846;SDS011;10084;50.518;8.588;2024-02-26T00:28:20;0.73;;;0.30;;
19846;SDS011;10084;50.518;8.588;2024-02-26T00:30:46;0.33;;;0.30;;
19846;SDS011;10084;50.518;8.588;2024-02-26T00:33:12;0.70;;;0.67;;
19846;SDS011;10084;50.518;8.588;2024-02-26T00:35:40;0.60;;;0.60;;
19846;SDS011;10084;50.518;8.588;2024-02-26T00:38:06;2.37;;;0.57;;
19846;SDS011;10084;50.518;8.588;2024-02-26T00:40:31;0.50;;;0.50;;
19846;SDS011;10084;50.518;8.588;2024-02-26T00:42:57;0.93;;;0.80;;
19846;SDS011;10084;50.518;8.588;2024-02-26T00:45:23;1.03;;;0.97;;
19846;SDS011;10084;50.518;8.588;2024-02-26T00:47:49;0.47;;;0.47;;
19846;SDS011;10084;50.518;8.588;2024-02-26T00:50:15;0.53;;;0.53;;
19846;SDS011;10084;50.518;8.588;2024-02-26T00:52:40;1.10;;;1.00;;
19846;SDS011;10084;50.518;8.588;2024-02-26T00:55:06;1.43;;;0.90;;
19846;SDS011;10084;50.518;8.588;2024-02-26T00:57:33;1.20;;;0.90;;
19846;SDS011;10084;50.518;8.588;2024-02-26T00:59:58;1.33;;;0.80;;
19846;SDS011;10084;50.518;8.588;2024-02-26T01:02:25;4.03;;;1.60;;
19846;SDS011;10084;50.518;8.588;2024-02-26T01:04:51;0.97;;;0.93;;
19846;SDS011;10084;50.518;8.588;2024-02-26T01:07:17;2.73;;;1.80;;
19846;SDS011;10084;50.518;8.588;2024-02-26T01:09:44;2.57;;;1.80;;
19846;SDS011;10084;50.518;8.588;2024-02-26T01:12:09;5.77;;;2.23;;
19846;SDS011;10084;50.518;8.588;2024-02-26T01:14:35;1.47;;;1.37;;
19846;SDS011;10084;50.518;8.588;2024-02-26T01:17:01;3.00;;;2.80;;
19846;SDS011;10084;50.518;8.588;2024-02-26T01:19:26;6.07;;;2.37;;
19846;SDS011;10084;50.518;8.588;2024-02-26T01:21:52;2.30;;;2.07;;
19846;SDS011;10084;50.518;8.588;2024-02-26T01:24:18;1.70;;;1.60;;
19846;SDS011;10084;50.518;8.588;2024-02-26T01:26:44;3.73;;;2.07;;
19846;SDS011;10084;50.518;8.588;2024-02-26T01:29:09;3.37;;;2.87;;
19846;SDS011;10084;50.518;8.588;2024-02-26T01:31:35;2.47;;;2.27;;
19846;SDS011;10084;50.518;8.588;2024-02-26T01:34:01;3.73;;;1.70;;
19846;SDS011;10084;50.518;8.588;2024-02-26T01:36:27;1.93;;;1.83;;
19846;SDS011;10084;50.518;8.588;2024-02-26T01:38:52;2.60;;;2.40;;
19846;SDS011;10084;50.518;8.588;2024-02-26T01:41:18;13.87;;;1.90;;
19846;SDS011;10084;50.518;8.588;2024-02-26T01:43:44;3.00;;;2.70;;
19846;SDS011;10084;50.518;8.588;2024-02-26T01:46:10;3.27;;;2.87;;
19846;SDS011;10084;50.518;8.588;2024-02-26T01:48:42;1.87;;;1.50;;
19846;SDS011;10084;50.518;8.588;2024-02-26T01:51:09;0.90;;;0.73;;
19846;SDS011;10084;50.518;8.588;2024-02-26T01:53:37;1.40;;;0.90;;
19846;SDS011;10084;50.518;8.588;2024-02-26T01:56:03;0.20;;;0.20;;
19846;SDS011;10084;50.518;8.588;2024-02-26T01:58:29;0.37;;;0.27;;
19846;SDS011;10084;50.518;8.588;2024-02-26T02:00:56;0.10;;;0.10;;
19846;SDS011;10084;50.518;8.588;2024-02-26T02:03:22;0.30;;;0.30;;
19846;SDS011;10084;50.518;8.588;2024-02-26T02:05:48;5.80;;;0.50;;
19846;SDS011;10084;50.518;8.588;2024-02-26T02:08:14;0.37;;;0.27;;
19846;SDS011;10084;50.518;8.588;2024-02-26T02:10:41;0.20;;;0.20;;
19846;SDS011;10084;50.518;8.588;2024-02-26T02:13:07;0.13;;;0.13;;
19846;SDS011;10084;50.518;8.588;2024-02-26T02:15:33;0.13;;;0.13;;
19846;SDS011;10084;50.518;8.588;2024-02-26T02:17:59;0.10;;;0.10;;
19846;SDS011;10084;50.518;8.588;2024-02-26T02:20:26;0.60;;;0.30;;
19846;SDS011;10084;50.518;8.588;2024-02-26T02:22:58;0.67;;;0.53;;
19846;SDS011;10084;50.518;8.588;2024-02-26T02:25:23;0.57;;;0.57;;
19846;SDS011;10084;50.518;8.588;2024-02-26T02:27:49;0.30;;;0.30;;
19846;SDS011;10084;50.518;8.588;2024-02-26T02:30:15;0.40;;;0.40;;
19846;SDS011;10084;50.518;8.588;2024-02-26T02:32:41;0.30;;;0.20;;
19846;SDS011;10084;50.518;8.588;2024-02-26T02:35:07;0.97;;;0.30;;
19846;SDS011;10084;50.518;8.588;2024-02-26T02:37:33;0.30;;;0.30;;
19846;SDS011;10084;50.518;8.588;2024-02-26T02:39:59;0.07;;;0.07;;
19846;SDS011;10084;50.518;8.588;2024-02-26T02:42:25;0.10;;;0.00;;
19846;SDS011;10084;50.518;8.588;2024-02-26T02:44:51;0.20;;;0.20;;
19846;SDS011;10084;50.518;8.588;2024-02-26T02:47:17;0.10;;;0.00;;
19846;SDS011;10084;50.518;8.588;2024-02-26T02:49:43;0.20;;;0.20;;
19846;SDS011;10084;50.518;8.588;2024-02-26T02:52:08;0.10;;;0.10;;
19846;SDS011;10084;50.518;8.588;2024-02-26T02:54:34;4.90;;;0.30;;
19846;SDS011;10084;50.518;8.588;2024-02-26T02:57:02;0.10;;;0.10;;
19846;SDS011;10084;50.518;8.588;2024-02-26T02:59:28;0.20;;;0.20;;
19846;SDS011;10084;50.518;8.588;2024-02-26T03:01:54;2.00;;;0.30;;
19846;SDS011;10084;50.518;8.588;2024-02-26T03:04:19;5.30;;;0.40;;
19846;SDS011;10084;50.518;8.588;2024-02-26T03:06:45;0.20;;;0.20;;
19846;SDS011;10084;50.518;8.588;2024-02-26T03:09:11;0.17;;;0.17;;
19846;SDS011;10084;50.518;8.588;2024-02-26T03:11:36;0.23;;;0.23;;
19846;SDS011;10084;50.518;8.588;2024-02-26T03:14:02;0.07;;;0.07;;
19846;SDS011;10084;50.518;8.588;2024-02-26T03:16:28;1.93;;;0.13;;
19846;SDS011;10084;50.518;8.588;2024-02-26T03:18:54;0.40;;;0.30;;
19846;SDS011;10084;50.518;8.588;2024-02-26T03:21:20;0.20;;;0.20;;
19846;SDS011;10084;50.518;8.588;2024-02-26T03:23:46;0.63;;;0.53;;
19846;SDS011;10084;50.518;8.588;2024-02-26T03:26:12;0.20;;;0.17;;
19846;SDS011;10084;50.518;8.588;2024-02-26T03:28:40;0.10;;;0.10;;
19846;SDS011;10084;50.518;8.588;2024-02-26T03:31:05;0.37;;;0.20;;
19846;SDS011;10084;50.518;8.588;2024-02-26T03:33:31;6.70;;;0.50;;
19846;SDS011;10084;50.518;8.588;2024-02-26T03:35:57;0.20;;;0.20;;
19846;SDS011;10084;50.518;8.588;2024-02-26T03:38:22;0.57;;;0.17;;
19846;SDS011;10084;50.518;8.588;2024-02-26T03:40:48;2.93;;;0.87;;
19846;SDS011;10084;50.518;8.588;2024-02-26T03:43:14;0.47;;;0.33;;
19846;SDS011;10084;50.518;8.588;2024-02-26T03:45:40;0.60;;;0.20;;
19846;SDS011;10084;50.518;8.588;2024-02-26T03:48:06;0.30;;;0.13;;
19846;SDS011;10084;50.518;8.588;2024-02-26T03:50:31;0.23;;;0.23;;
19846;SDS011;10084;50.518;8.588;2024-02-26T03:52:57;0.60;;;0.23;;
19846;SDS011;10084;50.518;8.588;2024-02-26T03:55:23;0.23;;;0.23;;
19846;SDS011;10084;50.518;8.588;2024-02-26T03:57:51;0.40;;;0.23;;
19846;SDS011;10084;50.518;8.588;2024-02-26T04:00:17;4.33;;;0.57;;
19846;SDS011;10084;50.518;8.588;2024-02-26T04:02:43;0.57;;;0.20;;
19846;SDS011;10084;50.518;8.588;2024-02-26T04:05:09;0.30;;;0.20;;
19846;SDS011;10084;50.518;8.588;2024-02-26T04:07:36;0.40;;;0.40;;
19846;SDS011;10084;50.518;8.588;2024-02-26T04:10:01;0.20;;;0.20;;
19846;SDS011;10084;50.518;8.588;2024-02-26T04:12:30;0.00;;;0.00;;
19846;SDS011;10084;50.518;8.588;2024-02-26T04:14:55;0.37;;;0.30;;
19846;SDS011;10084;50.518;8.588;2024-02-26T04:17:21;0.50;;;0.40;;
19846;SDS011;10084;50.518;8.588;2024-02-26T04:19:47;0.20;;;0.20;;
19846;SDS011;10084;50.518;8.588;2024-02-26T04:22:12;0.10;;;0.10;;
19846;SDS011;10084;50.518;8.588;2024-02-26T04:24:38;0.23;;;0.23;;
19846;SDS011;10084;50.518;8.588;2024-02-26T04:27:04;0.50;;;0.33;;
19846;SDS011;10084;50.518;8.588;2024-02-26T04:29:30;10.63;;;0.30;;
19846;SDS011;10084;50.518;8.588;2024-02-26T04:31:55;0.37;;;0.37;;
19846;SDS011;10084;50.518;8.588;2024-02-26T04:34:21;0.20;;;0.20;;
19846;SDS011;10084;50.518;8.588;2024-02-26T04:36:47;0.57;;;0.30;;
19846;SDS011;10084;50.518;8.588;2024-02-26T04:39:13;0.17;;;0.17;;
19846;SDS011;10084;50.518;8.588;2024-02-26T04:41:39;0.20;;;0.20;;
19846;SDS011;10084;50.518;8.588;2024-02-26T04:44:05;0.63;;;0.30;;
19846;SDS011;10084;50.518;8.588;2024-02-26T04:46:31;0.10;;;0.10;;
19846;SDS011;10084;50.518;8.588;2024-02-26T04:48:56;0.23;;;0.17;;
19846;SDS011;10084;50.518;8.588;2024-02-26T04:51:23;0.47;;;0.47;;
19846;SDS011;10084;50.518;8.588;2024-02-26T04:53:49;0.30;;;0.20;;
19846;SDS011;10084;50.518;8.588;2024-02-26T04:56:15;0.20;;;0.20;;
19846;SDS011;10084;50.518;8.588;2024-02-26T04:58:41;0.40;;;0.40;;
19846;SDS011;10084;50.518;8.588;2024-02-26T05:01:06;2.00;;;0.40;;
19846;SDS011;10084;50.518;8.588;2024-02-26T05:03:32;0.53;;;0.30;;
19846;SDS011;10084;50.518;8.588;2024-02-26T05:05:58;0.30;;;0.30;;
19846;SDS011;10084;50.518;8.588;2024-02-26T05:08:23;0.10;;;0.10;;
19846;SDS011;10084;50.518;8.588;2024-02-26T05:10:49;0.60;;;0.30;;
19846;SDS011;10084;50.518;8.588;2024-02-26T05:13:15;0.30;;;0.30;;
19846;SDS011;10084;50.518;8.588;2024-02-26T05:15:43;0.27;;;0.10;;
19846;SDS011;10084;50.518;8.588;2024-02-26T05:18:10;0.30;;;0.30;;
19846;SDS011;10084;50.518;8.588;2024-02-26T05:20:35;0.10;;;0.10;;
19846;SDS011;10084;50.518;8.588;2024-02-26T05:23:03;0.20;;;0.10;;
19846;SDS011;10084;50.518;8.588;2024-02-26T05:25:29;0.90;;;0.90;;
19846;SDS011;10084;50.518;8.588;2024-02-26T05:27:55;0.80;;;0.47;;
19846;SDS011;10084;50.518;8.588;2024-02-26T05:30:21;0.30;;;0.30;;
19846;SDS011;10084;50.518;8.588;2024-02-26T05:32:46;0.23;;;0.23;;
19846;SDS011;10084;50.518;8.588;2024-02-26T05:35:12;0.10;;;0.10;;
19846;SDS011;10084;50.518;8.588;2024-02-26T05:37:38;0.60;;;0.60;;
19846;SDS011;10084;50.518;8.588;2024-02-26T05:40:04;1.53;;;0.67;;
19846;SDS011;10084;50.518;8.588;2024-02-26T05:42:31;0.40;;;0.40;;
19846;SDS011;10084;50.518;8.588;2024-02-26T05:44:57;0.30;;;0.30;;
19846;SDS011;10084;50.518;8.588;2024-02-26T05:47:22;0.20;;;0.20;;
19846;SDS011;10084;50.518;8.588;2024-02-26T05:49:48;0.30;;;0.30;;
19846;SDS011;10084;50.518;8.588;2024-02-26T05:52:14;0.20;;;0.20;;
19846;SDS011;10084;50.518;8.588;2024-02-26T05:54:40;1.17;;;0.37;;
19846;SDS011;10084;50.518;8.588;2024-02-26T05:57:05;0.40;;;0.40;;
19846;SDS011;10084;50.518;8.588;2024-02-26T05:59:31;0.40;;;0.40;;
19846;SDS011;10084;50.518;8.588;2024-02-26T06:01:57;0.43;;;0.33;;
19846;SDS011;10084;50.518;8.588;2024-02-26T06:04:22;0.50;;;0.50;;
19846;SDS011;10084;50.518;8.588;2024-02-26T06:06:48;1.03;;;0.53;;
19846;SDS011;10084;50.518;8.588;2024-02-26T06:09:14;0.40;;;0.40;;
19846;SDS011;10084;50.518;8.588;2024-02-26T06:11:40;1.17;;;0.50;;
19846;SDS011;10084;50.518;8.588;2024-02-26T06:14:06;5.10;;;0.63;;
19846;SDS011;10084;50.518;8.588;2024-02-26T06:16:32;1.10;;;1.10;;
19846;SDS011;10084;50.518;8.588;2024-02-26T06:18:58;0.20;;;0.20;;
19846;SDS011;10084;50.518;8.588;2024-02-26T06:21:25;12.93;;;0.50;;
19846;SDS011;10084;50.518;8.588;2024-02-26T06:23:51;5.83;;;0.90;;
19846;SDS011;10084;50.518;8.588;2024-02-26T06:26:17;0.20;;;0.20;;
19846;SDS011;10084;50.518;8.588;2024-02-26T06:28:42;0.60;;;0.60;;
19846;SDS011;10084;50.518;8.588;2024-02-26T06:31:08;0.53;;;0.33;;
19846;SDS011;10084;50.518;8.588;2024-02-26T06:33:34;0.57;;;0.57;;
19846;SDS011;10084;50.518;8.588;2024-02-26T06:35:59;7.43;;;0.60;;
19846;SDS011;10084;50.518;8.588;2024-02-26T06:38:25;0.20;;;0.20;;
19846;SDS011;10084;50.518;8.588;2024-02-26T06:40:51;0.17;;;0.17;;
19846;SDS011;10084;50.518;8.588;2024-02-26T06:43:17;2.33;;;0.13;;
19846;SDS011;10084;50.518;8.588;2024-02-26T06:45:43;0.50;;;0.47;;
19846;SDS011;10084;50.518;8.588;2024-02-26T06:48:08;0.30;;;0.30;;
19846;SDS011;10084;50.518;8.588;2024-02-26T06:50:34;2.53;;;0.50;;
19846;SDS011;10084;50.518;8.588;2024-02-26T06:53:00;0.47;;;0.47;;
19846;SDS011;10084;50.518;8.588;2024-02-26T06:55:26;0.27;;;0.27;;
19846;SDS011;10084;50.518;8.588;2024-02-26T06:57:51;0.30;;;0.30;;
19846;SDS011;10084;50.518;8.588;2024-02-26T07:00:17;0.43;;;0.43;;
19846;SDS011;10084;50.518;8.588;2024-02-26T07:02:43;0.90;;;0.10;;
19846;SDS011;10084;50.518;8.588;2024-02-26T07:05:09;0.20;;;0.20;;
19846;SDS011;10084;50.518;8.588;2024-02-26T07:07:34;0.33;;;0.30;;
19846;SDS011;10084;50.518;8.588;2024-02-26T07:10:00;0.40;;;0.40;;
19846;SDS011;10084;50.518;8.588;2024-02-26T07:12:29;0.30;;;0.10;;
19846;SDS011;10084;50.518;8.588;2024-02-26T07:14:55;0.30;;;0.30;;
19846;SDS011;10084;50.518;8.588;2024-02-26T07:17:21;0.10;;;0.10;;
19846;SDS011;10084;50.518;8.588;2024-02-26T07:19:46;0.73;;;0.30;;
19846;SDS011;10084;50.518;8.588;2024-02-26T07:22:12;12.30;;;0.73;;
19846;SDS011;10084;50.518;8.588;2024-02-26T07:24:38;1.07;;;0.87;;
19846;SDS011;10084;50.518;8.588;2024-02-26T07:27:04;0.10;;;0.10;;
19846;SDS011;10084;50.518;8.588;2024-02-26T07:29:30;6.10;;;0.53;;
19846;SDS011;10084;50.518;8.588;2024-02-26T07:31:56;0.97;;;0.87;;
19846;SDS011;10084;50.518;8.588;2024-02-26T07:34:21;0.40;;;0.40;;
19846;SDS011;10084;50.518;8.588;2024-02-26T07:36:52;14.03;;;0.83;;
19846;SDS011;10084;50.518;8.588;2024-02-26T07:39:19;0.50;;;0.43;;
19846;SDS011;10084;50.518;8.588;2024-02-26T07:41:44;0.60;;;0.50;;
19846;SDS011;10084;50.518;8.588;2024-02-26T07:44:13;1.40;;;0.63;;
19846;SDS011;10084;50.518;8.588;2024-02-26T07:46:39;0.43;;;0.40;;
19846;SDS011;10084;50.518;8.588;2024-02-26T07:49:04;0.27;;;0.27;;
19846;SDS011;10084;50.518;8.588;2024-02-26T07:51:30;0.30;;;0.30;;
19846;SDS011;10084;50.518;8.588;2024-02-26T07:53:56;0.33;;;0.33;;
19846;SDS011;10084;50.518;8.588;2024-02-26T07:56:22;0.33;;;0.33;;
19846;SDS011;10084;50.518;8.588;2024-02-26T07:58:48;0.27;;;0.20;;
19846;SDS011;10084;50.518;8.588;2024-02-26T08:01:13;0.20;;;0.20;;
19846;SDS011;10084;50.518;8.588;2024-02-26T08:03:40;0.67;;;0.67;;
19846;SDS011;10084;50.518;8.588;2024-02-26T08:06:05;0.30;;;0.30;;
19846;SDS011;10084;50.518;8.588;2024-02-26T08:08:33;0.47;;;0.37;;
19846;SDS011;10084;50.518;8.588;2024-02-26T08:10:59;0.60;;;0.23;;
19846;SDS011;10084;50.518;8.588;2024-02-26T08:13:25;3.90;;;0.33;;
19846;SDS011;10084;50.518;8.588;2024-02-26T08:15:51;2.87;;;0.47;;
19846;SDS011;10084;50.518;8.588;2024-02-26T08:18:17;0.43;;;0.40;;
19846;SDS011;10084;50.518;8.588;2024-02-26T08:20:44;0.33;;;0.33;;
19846;SDS011;10084;50.518;8.588;2024-02-26T08:23:10;0.77;;;0.67;;
19846;SDS011;10084;50.518;8.588;2024-02-26T08:25:35;0.57;;;0.43;;
19846;SDS011;10084;50.518;8.588;2024-02-26T08:28:01;7.40;;;0.40;;
19846;SDS011;10084;50.518;8.588;2024-02-26T08:30:27;0.77;;;0.60;;
19846;SDS011;10084;50.518;8.588;2024-02-26T08:32:53;5.73;;;0.40;;
19846;SDS011;10084;50.518;8.588;2024-02-26T08:35:19;0.43;;;0.43;;
19846;SDS011;10084;50.518;8.588;2024-02-26T08:37:45;0.50;;;0.50;;
19846;SDS011;10084;50.518;8.588;2024-02-26T08:40:11;0.10;;;0.10;;
19846;SDS011;10084;50.518;8.588;2024-02-26T08:42:37;1.37;;;0.93;;
19846;SDS011;10084;50.518;8.588;2024-02-26T08:45:02;0.60;;;0.60;;
19846;SDS011;10084;50.518;8.588;2024-02-26T08:47:29;0.30;;;0.30;;
19846;SDS011;10084;50.518;8.588;2024-02-26T08:49:55;0.80;;;0.60;;
19846;SDS011;10084;50.518;8.588;2024-02-26T08:52:20;1.13;;;1.03;;
19846;SDS011;10084;50.518;8.588;2024-02-26T08:54:49;0.67;;;0.67;;
19846;SDS011;10084;50.518;8.588;2024-02-26T08:57:15;0.73;;;0.73;;
19846;SDS011;10084;50.518;8.588;2024-02-26T08:59:41;0.50;;;0.50;;
19846;SDS011;10084;50.518;8.588;2024-02-26T09:02:07;0.57;;;0.57;;
19846;SDS011;10084;50.518;8.588;2024-02-26T09:04:34;0.50;;;0.50;;
19846;SDS011;10084;50.518;8.588;2024-02-26T09:07:00;2.20;;;0.60;;
19846;SDS011;10084;50.518;8.588;2024-02-26T09:09:27;0.30;;;0.30;;
19846;SDS011;10084;50.518;8.588;2024-02-26T09:11:52;1.30;;;0.70;;
19846;SDS011;10084;50.518;8.588;2024-02-26T09:14:20;0.70;;;0.57;;
19846;SDS011;10084;50.518;8.588;2024-02-26T09:16:46;0.43;;;0.43;;
19846;SDS011;10084;50.518;8.588;2024-02-26T09:19:13;0.83;;;0.63;;
19846;SDS011;10084;50.518;8.588;2024-02-26T09:21:43;3.60;;;0.70;;
19846;SDS011;10084;50.518;8.588;2024-02-26T09:24:10;0.83;;;0.70;;
19846;SDS011;10084;50.518;8.588;2024-02-26T09:26:36;0.43;;;0.30;;
19846;SDS011;10084;50.518;8.588;2024-02-26T09:29:02;0.63;;;0.40;;
19846;SDS011;10084;50.518;8.588;2024-02-26T09:31:29;0.80;;;0.33;;
19846;SDS011;10084;50.518;8.588;2024-02-26T09:33:55;0.93;;;0.70;;
19846;SDS011;10084;50.518;8.588;2024-02-26T09:36:21;1.13;;;0.40;;
19846;SDS011;10084;50.518;8.588;2024-02-26T09:38:47;1.33;;;0.80;;
19846;SDS011;10084;50.518;8.588;2024-02-26T09:41:16;0.67;;;0.67;;
19846;SDS011;10084;50.518;8.588;2024-02-26T09:43:43;0.60;;;0.57;;
19846;SDS011;10084;50.518;8.588;2024-02-26T09:46:11;0.10;;;0.10;;
19846;SDS011;10084;50.518;8.588;2024-02-26T09:48:37;6.17;;;0.50;;
19846;SDS011;10084;50.518;8.588;2024-02-26T09:51:03;0.97;;;0.30;;
19846;SDS011;10084;50.518;8.588;2024-02-26T09:53:29;0.53;;;0.30;;
19846;SDS011;10084;50.518;8.588;2024-02-26T09:55:59;2.90;;;0.37;;
19846;SDS011;10084;50.518;8.588;2024-02-26T09:58:27;0.43;;;0.30;;
19846;SDS011;10084;50.518;8.588;2024-02-26T10:00:55;3.80;;;0.50;;
19846;SDS011;10084;50.518;8.588;2024-02-26T10:03:34;0.27;;;0.27;;
19846;SDS011;10084;50.518;8.588;2024-02-26T10:06:06;0.40;;;0.40;;
19846;SDS011;10084;50.518;8.588;2024-02-26T10:08:33;0.43;;;0.30;;
19846;SDS011;10084;50.518;8.588;2024-02-26T10:11:00;0.50;;;0.50;;
19846;SDS011;10084;50.518;8.588;2024-02-26T10:13:26;10.40;;;0.63;;
19846;SDS011;10084;50.518;8.588;2024-02-26T10:15:52;5.30;;;0.90;;
19846;SDS011;10084;50.518;8.588;2024-02-26T10:18:18;6.80;;;0.93;;
19846;SDS011;10084;50.518;8.588;2024-02-26T10:21:00;0.50;;;0.30;;
19846;SDS011;10084;50.518;8.588;2024-02-26T10:23:26;0.73;;;0.73;;
19846;SDS011;10084;50.518;8.588;2024-02-26T10:25:53;5.63;;;0.70;;
19846;SDS011;10084;50.518;8.588;2024-02-26T10:28:20;5.37;;;1.10;;
19846;SDS011;10084;50.518;8.588;2024-02-26T10:30:46;0.80;;;0.80;;
19846;SDS011;10084;50.518;8.588;2024-02-26T10:33:12;0.67;;;0.50;;
19846;SDS011;10084;50.518;8.588;2024-02-26T10:35:47;0.73;;;0.50;;
19846;SDS011;10084;50.518;8.588;2024-02-26T10:38:13;5.33;;;0.30;;
19846;SDS011;10084;50.518;8.588;2024-02-26T10:40:42;0.30;;;0.30;;
19846;SDS011;10084;50.518;8.588;2024-02-26T10:43:07;0.80;;;0.50;;
19846;SDS011;10084;50.518;8.588;2024-02-26T10:45:33;1.03;;;0.77;;
19846;SDS011;10084;50.518;8.588;2024-02-26T10:48:00;0.93;;;0.60;;
19846;SDS011;10084;50.518;8.588;2024-02-26T10:50:26;0.73;;;0.30;;
19846;SDS011;10084;50.518;8.588;2024-02-26T10:52:51;1.03;;;0.80;;
19846;SDS011;10084;50.518;8.588;2024-02-26T10:55:19;1.17;;;1.07;;
19846;SDS011;10084;50.518;8.588;2024-02-26T10:57:46;0.53;;;0.53;;
19846;SDS011;10084;50.518;8.588;2024-02-26T11:00:14;0.97;;;0.50;;
19846;SDS011;10084;50.518;8.588;2024-02-26T11:02:41;0.43;;;0.40;;
19846;SDS011;10084;50.518;8.588;2024-02-26T11:05:07;0.73;;;0.50;;
19846;SDS011;10084;50.518;8.588;2024-02-26T11:07:36;0.53;;;0.40;;
19846;SDS011;10084;50.518;8.588;2024-02-26T11:10:04;0.40;;;0.40;;
19846;SDS011;10084;50.518;8.588;2024-02-26T11:12:31;1.70;;;0.70;;
19846;SDS011;10084;50.518;8.588;2024-02-26T11:14:58;0.73;;;0.73;;
19846;SDS011;10084;50.518;8.588;2024-02-26T11:17:27;0.43;;;0.43;;
19846;SDS011;10084;50.518;8.588;2024-02-26T11:19:56;0.57;;;0.47;;
19846;SDS011;10084;50.518;8.588;2024-02-26T11:22:23;0.57;;;0.57;;
19846;SDS011;10084;50.518;8.588;2024-02-26T11:24:51;0.60;;;0.57;;
19846;SDS011;10084;50.518;8.588;2024-02-26T11:27:27;1.23;;;0.87;;
19846;SDS011;10084;50.518;8.588;2024-02-26T11:29:58;0.57;;;0.50;;
19846;SDS011;10084;50.518;8.588;2024-02-26T11:32:26;1.53;;;0.90;;
19846;SDS011;10084;50.518;8.588;2024-02-26T11:34:55;1.07;;;0.50;;
19846;SDS011;10084;50.518;8.588;2024-02-26T11:37:21;0.93;;;0.40;;
19846;SDS011;10084;50.518;8.588;2024-02-26T11:39:48;0.57;;;0.57;;
19846;SDS011;10084;50.518;8.588;2024-02-26T11:42:16;0.77;;;0.77;;
19846;SDS011;10084;50.518;8.588;2024-02-26T11:44:42;0.30;;;0.30;;
19846;SDS011;10084;50.518;8.588;2024-02-26T11:47:17;1.40;;;0.60;;
19846;SDS011;10084;50.518;8.588;2024-02-26T11:49:44;1.20;;;0.90;;
19846;SDS011;10084;50.518;8.588;2024-02-26T11:52:10;0.63;;;0.63;;
19846;SDS011;10084;50.518;8.588;2024-02-26T11:54:56;1.27;;;0.80;;
19846;SDS011;10084;50.518;8.588;2024-02-26T11:57:43;0.70;;;0.70;;
19846;SDS011;10084;50.518;8.588;2024-02-26T12:02:43;0.23;;;0.23;;
19846;SDS011;10084;50.518;8.588;2024-02-26T12:05:14;0.93;;;0.40;;
19846;SDS011;10084;50.518;8.588;2024-02-26T12:07:45;1.07;;;0.97;;
19846;SDS011;10084;50.518;8.588;2024-02-26T12:12:54;1.10;;;0.70;;
19846;SDS011;10084;50.518;8.588;2024-02-26T12:15:23;2.30;;;0.70;;
19846;SDS011;10084;50.518;8.588;2024-02-26T12:17:49;0.43;;;0.43;;
19846;SDS011;10084;50.518;8.588;2024-02-26T12:20:16;0.83;;;0.83;;
19846;SDS011;10084;50.518;8.588;2024-02-26T12:22:46;0.80;;;0.63;;
19846;SDS011;10084;50.518;8.588;2024-02-26T12:25:13;0.83;;;0.60;;
19846;SDS011;10084;50.518;8.588;2024-02-26T12:27:39;0.87;;;0.87;;
19846;SDS011;10084;50.518;8.588;2024-02-26T12:30:05;0.73;;;0.53;;
19846;SDS011;10084;50.518;8.588;2024-02-26T12:32:31;0.87;;;0.50;;
19846;SDS011;10084;50.518;8.588;2024-02-26T12:34:58;1.97;;;0.87;;
19846;SDS011;10084;50.518;8.588;2024-02-26T12:37:25;0.33;;;0.33;;
19846;SDS011;10084;50.518;8.588;2024-02-26T12:39:52;0.70;;;0.60;;
19846;SDS011;10084;50.518;8.588;2024-02-26T12:42:18;0.83;;;0.83;;
19846;SDS011;10084;50.518;8.588;2024-02-26T12:44:46;0.77;;;0.60;;
19846;SDS011;10084;50.518;8.588;2024-02-26T12:47:12;0.57;;;0.47;;
19846;SDS011;10084;50.518;8.588;2024-02-26T12:49:42;1.53;;;0.80;;
19846;SDS011;10084;50.518;8.588;2024-02-26T12:52:09;3.23;;;0.83;;
19846;SDS011;10084;50.518;8.588;2024-02-26T12:54:36;3.67;;;0.87;;
19846;SDS011;10084;50.518;8.588;2024-02-26T12:57:04;0.47;;;0.47;;
19846;SDS011;10084;50.518;8.588;2024-02-26T12:59:32;1.13;;;1.07;;
19846;SDS011;10084;50.518;8.588;2024-02-26T13:01:59;0.57;;;0.50;;
19846;SDS011;10084;50.518;8.588;2024-02-26T13:04:27;1.20;;;0.47;;
19846;SDS011;10084;50.518;8.588;2024-02-26T13:06:55;0.40;;;0.40;;
19846;SDS011;10084;50.518;8.588;2024-02-26T13:09:20;0.43;;;0.43;;
19846;SDS011;10084;50.518;8.588;2024-02-26T13:11:53;0.73;;;0.67;;
19846;SDS011;10084;50.518;8.588;2024-02-26T13:14:22;1.07;;;0.70;;
19846;SDS011;10084;50.518;8.588;2024-02-26T13:16:55;2.00;;;0.57;;
19846;SDS011;10084;50.518;8.588;2024-02-26T13:19:21;0.83;;;0.77;;
19846;SDS011;10084;50.518;8.588;2024-02-26T13:21:47;1.00;;;0.90;;
19846;SDS011;10084;50.518;8.588;2024-02-26T13:24:13;0.93;;;0.67;;
19846;SDS011;10084;50.518;8.588;2024-02-26T13:26:39;1.13;;;0.70;;
19846;SDS011;10084;50.518;8.588;2024-02-26T13:29:05;1.10;;;1.00;;
19846;SDS011;10084;50.518;8.588;2024-02-26T13:31:30;0.60;;;0.50;;
19846;SDS011;10084;50.518;8.588;2024-02-26T13:33:56;2.00;;;0.70;;
19846;SDS011;10084;50.518;8.588;2024-02-26T13:36:23;0.60;;;0.57;;
19846;SDS011;10084;50.518;8.588;2024-02-26T13:38:52;0.93;;;0.60;;
19846;SDS011;10084;50.518;8.588;2024-02-26T13:41:19;0.50;;;0.50;;
19846;SDS011;10084;50.518;8.588;2024-02-26T13:43:46;3.73;;;0.60;;
19846;SDS011;10084;50.518;8.588;2024-02-26T13:46:12;1.00;;;0.90;;
19846;SDS011;10084;50.518;8.588;2024-02-26T13:48:40;0.87;;;0.87;;
19846;SDS011;10084;50.518;8.588;2024-02-26T13:51:06;0.70;;;0.70;;
19846;SDS011;10084;50.518;8.588;2024-02-26T13:53:32;0.70;;;0.70;;
19846;SDS011;10084;50.518;8.588;2024-02-26T13:55:58;1.33;;;0.73;;
19846;SDS011;10084;50.518;8.588;2024-02-26T13:58:26;0.87;;;0.70;;
19846;SDS011;10084;50.518;8.588;2024-02-26T14:00:52;0.80;;;0.80;;
19846;SDS011;10084;50.518;8.588;2024-02-26T14:03:22;1.37;;;0.83;;
19846;SDS011;10084;50.518;8.588;2024-02-26T14:05:47;3.40;;;0.93;;
19846;SDS011;10084;50.518;8.588;2024-02-26T14:08:14;4.37;;;1.00;;
19846;SDS011;10084;50.518;8.588;2024-02-26T14:10:40;0.57;;;0.57;;
19846;SDS011;10084;50.518;8.588;2024-02-26T14:13:05;1.00;;;0.83;;
19846;SDS011;10084;50.518;8.588;2024-02-26T14:15:31;0.83;;;0.70;;
19846;SDS011;10084;50.518;8.588;2024-02-26T14:17:57;5.37;;;0.73;;
19846;SDS011;10084;50.518;8.588;2024-02-26T14:20:23;1.33;;;0.70;;
19846;SDS011;10084;50.518;8.588;2024-02-26T14:22:50;0.70;;;0.70;;
19846;SDS011;10084;50.518;8.588;2024-02-26T14:25:18;1.10;;;0.90;;
19846;SDS011;10084;50.518;8.588;2024-02-26T14:27:45;0.73;;;0.63;;
19846;SDS011;10084;50.518;8.588;2024-02-26T14:30:12;1.40;;;0.90;;
19846;SDS011;10084;50.518;8.588;2024-02-26T14:32:37;0.60;;;0.57;;
19846;SDS011;10084;50.518;8.588;2024-02-26T14:35:09;0.67;;;0.53;;
19846;SDS011;10084;50.518;8.588;2024-02-26T14:37:36;1.00;;;0.63;;
19846;SDS011;10084;50.518;8.588;2024-02-26T14:40:02;1.03;;;0.73;;
19846;SDS011;10084;50.518;8.588;2024-02-26T14:42:28;0.50;;;0.40;;
19846;SDS011;10084;50.518;8.588;2024-02-26T14:44:54;4.07;;;0.83;;
19846;SDS011;10084;50.518;8.588;2024-02-26T14:47:20;0.57;;;0.57;;
19846;SDS011;10084;50.518;8.588;2024-02-26T14:49:46;0.87;;;0.70;;